createdAt,value
2022-09-24T00:02:22.115Z,8.20
2022-09-24T00:04:56.106Z,8.20
2022-09-24T00:07:29.629Z,8.20
2022-09-24T00:10:01.801Z,8.20
2022-09-24T00:12:34.970Z,8.20
2022-09-24T00:15:06.488Z,8.20
2022-09-24T00:17:40.044Z,8.10
2022-09-24T00:20:12.489Z,8.10
2022-09-24T00:22:46.648Z,8.10
2022-09-24T00:25:31.660Z,8.00
2022-09-24T00:28:03.056Z,8.00
2022-09-24T00:30:35.113Z,8.00
2022-09-24T00:33:06.136Z,8.00
2022-09-24T00:35:37.167Z,7.90
2022-09-24T00:38:10.840Z,7.90
2022-09-24T00:40:42.402Z,7.90
2022-09-24T00:43:26.722Z,8.00
2022-09-24T00:45:59.862Z,7.90
2022-09-24T00:48:34.379Z,7.90
2022-09-24T00:51:06.489Z,7.80
2022-09-24T00:53:45.592Z,7.80
2022-09-24T00:56:18.316Z,7.90
2022-09-24T00:58:53.103Z,7.80
2022-09-24T01:01:25.522Z,7.70
2022-09-24T01:03:57.812Z,7.90
2022-09-24T01:06:29.280Z,7.70
2022-09-24T01:09:02.802Z,7.70
2022-09-24T01:11:41.220Z,7.70
2022-09-24T01:14:28.713Z,7.70
2022-09-24T01:17:04.066Z,7.60
2022-09-24T01:20:02.339Z,7.70
2022-09-24T01:22:44.346Z,7.60
2022-09-24T01:25:22.496Z,7.60
2022-09-24T01:28:05.013Z,7.60
2022-09-24T01:30:42.254Z,7.60
2022-09-24T01:33:19.265Z,7.50
2022-09-24T01:35:54.383Z,7.50
2022-09-24T01:38:30.584Z,7.50
2022-09-24T01:41:03.344Z,7.40
2022-09-24T01:43:34.294Z,7.50
2022-09-24T01:46:13.107Z,7.40
2022-09-24T01:48:44.230Z,7.40
2022-09-24T01:51:20.752Z,7.40
2022-09-24T01:53:54.321Z,7.40
2022-09-24T01:56:30.150Z,7.40
2022-09-24T01:59:03.439Z,7.40
2022-09-24T02:01:40.222Z,7.40
2022-09-24T02:04:15.781Z,7.40
2022-09-24T02:06:50.518Z,7.40
2022-09-24T02:09:37.098Z,7.40
2022-09-24T02:12:10.751Z,7.40
2022-09-24T02:14:43.949Z,7.40
2022-09-24T02:17:18.980Z,7.40
2022-09-24T02:19:50.111Z,7.40
2022-09-24T02:22:22.087Z,7.30
2022-09-24T02:24:53.957Z,7.30
2022-09-24T02:27:25.240Z,7.40
2022-09-24T02:29:56.160Z,7.30
2022-09-24T02:32:32.294Z,7.30
2022-09-24T02:35:03.730Z,7.30
2022-09-24T02:37:37.334Z,7.30
2022-09-24T02:40:10.826Z,7.30
2022-09-24T02:42:42.623Z,7.30
2022-09-24T02:45:14.879Z,7.30
2022-09-24T02:47:48.710Z,7.30
2022-09-24T02:50:21.110Z,7.30
2022-09-24T02:52:53.254Z,7.30
2022-09-24T02:55:24.401Z,7.30
2022-09-24T02:57:55.089Z,7.30
2022-09-24T03:00:29.035Z,7.30
2022-09-24T03:03:03.820Z,7.30
2022-09-24T03:05:35.344Z,7.30
2022-09-24T03:08:07.750Z,7.40
2022-09-24T03:10:39.389Z,7.30
2022-09-24T03:13:13.889Z,7.30
2022-09-24T03:15:45.628Z,7.30
2022-09-24T03:18:20.027Z,7.30
2022-09-24T03:20:58.469Z,7.30
2022-09-24T03:23:29.143Z,7.50
2022-09-24T03:26:00.342Z,7.30
2022-09-24T03:28:32.489Z,7.30
2022-09-24T03:31:02.577Z,7.40
2022-09-24T03:33:38.642Z,7.40
2022-09-24T03:36:11.098Z,7.40
2022-09-24T03:38:44.359Z,7.40
2022-09-24T03:41:16.346Z,7.40
2022-09-24T03:43:47.535Z,7.40
2022-09-24T03:46:19.554Z,7.50
2022-09-24T03:48:53.842Z,7.40
2022-09-24T03:51:26.172Z,7.40
2022-09-24T03:54:00.100Z,7.30
2022-09-24T03:56:34.006Z,7.30
2022-09-24T03:59:06.147Z,7.40
2022-09-24T04:01:38.636Z,7.30
2022-09-24T04:04:16.435Z,7.30
2022-09-24T04:06:50.362Z,7.30
2022-09-24T04:09:22.165Z,7.30
2022-09-24T04:11:53.447Z,7.30
2022-09-24T04:14:27.278Z,7.30
2022-09-24T04:16:58.269Z,7.30
2022-09-24T04:19:34.744Z,7.30
2022-09-24T04:22:06.058Z,7.30
2022-09-24T04:24:37.158Z,7.30
2022-09-24T04:27:09.172Z,7.30
2022-09-24T04:29:43.141Z,7.30
2022-09-24T04:32:15.149Z,7.30
2022-09-24T04:34:48.749Z,7.30
2022-09-24T04:37:21.123Z,7.30
2022-09-24T04:39:52.047Z,7.40
2022-09-24T04:42:23.105Z,7.30
2022-09-24T04:44:56.281Z,7.30
2022-09-24T04:47:27.016Z,7.30
2022-09-24T04:50:02.812Z,7.30
2022-09-24T04:52:35.550Z,7.30
2022-09-24T04:55:09.072Z,7.30
2022-09-24T04:57:41.453Z,7.30
2022-09-24T05:00:17.751Z,7.30
2022-09-24T05:02:50.167Z,7.30
2022-09-24T05:05:27.296Z,7.30
2022-09-24T05:07:58.787Z,7.30
2022-09-24T05:10:31.707Z,7.40
2022-09-24T05:13:03.454Z,7.20
2022-09-24T05:15:38.514Z,7.30
2022-09-24T05:18:13.127Z,7.40
2022-09-24T05:20:47.910Z,7.40
2022-09-24T05:23:19.368Z,7.40
2022-09-24T05:26:02.447Z,7.40
2022-09-24T05:28:34.291Z,7.50
2022-09-24T05:31:05.354Z,7.50
2022-09-24T05:33:37.075Z,7.60
2022-09-24T05:36:11.479Z,7.70
2022-09-24T05:38:43.360Z,7.50
2022-09-24T05:41:14.292Z,7.50
2022-09-24T05:43:45.806Z,7.50
2022-09-24T05:46:17.764Z,7.60
2022-09-24T05:48:50.217Z,7.60
2022-09-24T05:51:24.088Z,7.60
2022-09-24T05:53:55.647Z,7.70
2022-09-24T05:56:27.456Z,7.70
2022-09-24T05:59:01.782Z,7.70
2022-09-24T06:01:33.536Z,7.90
2022-09-24T06:04:08.838Z,7.80
2022-09-24T06:06:46.607Z,7.90
2022-09-24T06:09:19.384Z,7.90
2022-09-24T06:11:56.441Z,7.90
2022-09-24T06:14:26.788Z,8.00
2022-09-24T06:16:58.512Z,8.00
2022-09-24T06:19:33.110Z,8.10
2022-09-24T06:22:08.636Z,8.10
2022-09-24T06:24:41.316Z,8.10
2022-09-24T06:27:12.542Z,8.20
2022-09-24T06:29:44.496Z,8.20
2022-09-24T06:32:16.243Z,8.30
2022-09-24T06:34:47.787Z,8.40
2022-09-24T06:37:22.721Z,8.40
2022-09-24T06:39:55.539Z,8.70
2022-09-24T06:42:27.666Z,8.70
2022-09-24T06:45:03.177Z,8.90
2022-09-24T06:47:37.148Z,9.00
2022-09-24T06:50:09.679Z,9.00
2022-09-24T06:52:44.719Z,9.20
2022-09-24T06:55:16.645Z,9.30
2022-09-24T06:57:48.218Z,9.40
2022-09-24T07:00:19.896Z,9.50
2022-09-24T07:02:55.140Z,9.70
2022-09-24T07:05:26.895Z,10.00
2022-09-24T07:08:01.633Z,10.20
2022-09-24T07:10:34.952Z,10.60
2022-09-24T07:13:06.831Z,10.90
2022-09-24T07:15:38.572Z,11.40
2022-09-24T07:18:11.415Z,11.70
2022-09-24T07:20:45.630Z,11.60
2022-09-24T07:23:21.832Z,11.70
2022-09-24T07:25:57.832Z,11.70
2022-09-24T07:28:29.326Z,11.80
2022-09-24T07:31:01.338Z,11.70
2022-09-24T07:33:34.375Z,11.70
2022-09-24T07:36:08.861Z,11.80
2022-09-24T07:38:43.463Z,11.80
2022-09-24T07:41:15.701Z,11.90
2022-09-24T07:43:47.397Z,11.90
2022-09-24T07:46:18.617Z,12.00
2022-09-24T07:48:50.734Z,12.10
2022-09-24T07:51:22.218Z,12.20
2022-09-24T07:53:56.000Z,12.20
2022-09-24T07:56:28.240Z,12.30
2022-09-24T07:58:59.558Z,12.40
2022-09-24T08:01:31.541Z,12.40
2022-09-24T08:04:04.994Z,12.50
2022-09-24T08:06:40.455Z,12.50
2022-09-24T08:09:18.310Z,12.50
2022-09-24T08:11:49.432Z,12.60
2022-09-24T08:14:21.674Z,12.70
2022-09-24T08:16:53.394Z,12.80
2022-09-24T08:19:28.462Z,12.90
2022-09-24T08:22:02.631Z,13.00
2022-09-24T08:24:37.884Z,13.20
2022-09-24T08:27:11.625Z,13.30
2022-09-24T08:29:46.779Z,13.40
2022-09-24T08:32:19.175Z,13.60
2022-09-24T08:34:51.553Z,13.70
2022-09-24T08:37:25.546Z,13.80
2022-09-24T08:40:00.099Z,13.90
2022-09-24T08:42:42.394Z,14.00
2022-09-24T08:45:28.826Z,14.10
2022-09-24T08:48:00.462Z,14.20
2022-09-24T08:50:33.402Z,14.40
2022-09-24T08:53:13.524Z,14.40
2022-09-24T08:55:50.324Z,14.60
2022-09-24T08:58:31.815Z,14.60
2022-09-24T09:01:08.278Z,15.00
2022-09-24T09:03:40.438Z,15.30
2022-09-24T09:06:15.676Z,15.30
2022-09-24T09:09:06.826Z,15.40
2022-09-24T09:11:42.241Z,15.50
2022-09-24T09:14:15.486Z,15.70
2022-09-24T09:16:50.249Z,15.90
2022-09-24T09:19:21.192Z,16.10
2022-09-24T09:21:55.014Z,16.20
2022-09-24T09:24:30.097Z,16.40
2022-09-24T09:27:04.876Z,16.60
2022-09-24T09:29:36.448Z,16.80
2022-09-24T09:32:12.097Z,16.70
2022-09-24T09:34:51.254Z,16.70
2022-09-24T09:37:27.806Z,16.70
2022-09-24T09:40:10.289Z,16.80
2022-09-24T09:42:45.889Z,17.00
2022-09-24T09:45:28.253Z,17.00
2022-09-24T09:48:00.192Z,17.10
2022-09-24T09:50:36.191Z,17.00
2022-09-24T09:53:21.347Z,17.00
2022-09-24T09:55:56.930Z,16.90
2022-09-24T09:58:31.773Z,16.80
2022-09-24T10:01:09.616Z,16.70
2022-09-24T10:03:50.752Z,16.60
2022-09-24T10:06:27.315Z,16.60
2022-09-24T10:09:08.749Z,16.60
2022-09-24T10:11:40.461Z,16.50
2022-09-24T10:14:20.931Z,16.50
2022-09-24T10:16:56.067Z,16.50
2022-09-24T10:19:28.186Z,16.40
2022-09-24T10:22:02.494Z,16.50
2022-09-24T10:24:36.419Z,16.60
2022-09-24T10:27:14.295Z,16.70
2022-09-24T10:30:04.096Z,16.70
2022-09-24T10:32:36.331Z,16.80
2022-09-24T10:35:18.041Z,17.00
2022-09-24T10:37:54.263Z,17.30
2022-09-24T10:40:28.647Z,17.50
2022-09-24T10:43:04.435Z,17.60
2022-09-24T10:46:21.947Z,17.70
2022-09-24T10:48:57.614Z,17.80
2022-09-24T10:51:33.610Z,17.80
2022-09-24T10:54:18.621Z,17.80
2022-09-24T10:56:51.867Z,17.80
2022-09-24T10:59:30.821Z,17.80
2022-09-24T11:02:17.864Z,17.90
2022-09-24T11:04:53.897Z,18.00
2022-09-24T11:07:58.378Z,18.00
2022-09-24T11:10:41.447Z,18.10
2022-09-24T11:13:17.128Z,18.30
2022-09-24T11:15:59.753Z,18.30
2022-09-24T11:18:39.735Z,18.40
2022-09-24T11:21:17.568Z,18.30
2022-09-24T11:23:59.956Z,18.40
2022-09-24T11:26:35.274Z,18.50
2022-09-24T11:29:26.772Z,18.50
2022-09-24T11:32:06.591Z,18.50
2022-09-24T11:34:53.699Z,18.60
2022-09-24T11:37:31.829Z,18.50
2022-09-24T11:40:13.692Z,18.40
2022-09-24T11:42:52.207Z,18.40
2022-09-24T11:45:36.089Z,18.40
2022-09-24T11:48:35.567Z,18.30
2022-09-24T11:51:17.241Z,18.30
2022-09-24T11:53:50.798Z,18.40
2022-09-24T11:56:24.376Z,18.50
2022-09-24T11:58:59.322Z,18.50
2022-09-24T12:01:31.479Z,18.50
2022-09-24T12:04:05.804Z,18.60
2022-09-24T12:06:42.400Z,18.60
2022-09-24T12:09:17.781Z,18.50
2022-09-24T12:11:50.787Z,18.50
2022-09-24T12:14:25.368Z,18.60
2022-09-24T12:17:00.285Z,18.60
2022-09-24T12:19:35.638Z,18.50
2022-09-24T12:22:10.719Z,18.50
2022-09-24T12:24:45.716Z,18.40
2022-09-24T12:27:18.481Z,18.40
2022-09-24T12:30:03.587Z,18.40
2022-09-24T12:32:52.213Z,18.30
2022-09-24T12:35:25.341Z,18.40
2022-09-24T12:38:03.419Z,18.40
2022-09-24T12:41:03.619Z,18.50
2022-09-24T12:43:37.541Z,18.50
2022-09-24T12:46:10.074Z,18.50
2022-09-24T12:48:42.332Z,18.50
2022-09-24T12:51:14.803Z,18.50
2022-09-24T12:53:59.046Z,18.60
2022-09-24T12:56:31.485Z,18.50
2022-09-24T12:59:05.977Z,18.50
2022-09-24T13:01:38.511Z,18.40
2022-09-24T13:04:28.704Z,18.40
2022-09-24T13:07:01.318Z,18.40
2022-09-24T13:09:40.359Z,18.40
2022-09-24T13:12:24.522Z,18.30
2022-09-24T13:15:01.900Z,18.30
2022-09-24T13:17:33.326Z,18.30
2022-09-24T13:20:07.675Z,18.30
2022-09-24T13:22:39.646Z,18.30
2022-09-24T13:25:25.815Z,18.30
2022-09-24T13:28:04.509Z,18.40
2022-09-24T13:30:41.009Z,18.30
2022-09-24T13:33:24.215Z,18.30
2022-09-24T13:36:09.376Z,18.30
2022-09-24T13:38:41.786Z,18.30
2022-09-24T13:41:26.231Z,18.30
2022-09-24T13:43:59.615Z,18.30
2022-09-24T13:46:33.514Z,18.20
2022-09-24T13:49:06.594Z,18.30
2022-09-24T13:51:39.903Z,18.20
2022-09-24T13:54:16.132Z,18.30
2022-09-24T13:56:59.895Z,18.30
2022-09-24T13:59:31.567Z,18.20
2022-09-24T14:02:02.449Z,18.20
2022-09-24T14:04:36.390Z,18.20
2022-09-24T14:07:10.302Z,18.30
2022-09-24T14:09:47.927Z,18.10
2022-09-24T14:12:24.231Z,18.10
2022-09-24T14:14:58.512Z,18.10
2022-09-24T14:17:32.450Z,18.10
2022-09-24T14:20:03.401Z,18.00
2022-09-24T14:22:35.347Z,18.00
2022-09-24T14:25:09.350Z,17.90
2022-09-24T14:27:43.966Z,17.80
2022-09-24T14:30:21.201Z,17.80
2022-09-24T14:32:54.687Z,17.80
2022-09-24T14:35:30.307Z,17.70
2022-09-24T14:38:04.522Z,17.70
2022-09-24T14:40:43.231Z,17.60
2022-09-24T14:43:29.070Z,17.60
2022-09-24T14:46:05.637Z,17.50
2022-09-24T14:48:37.565Z,17.50
2022-09-24T14:51:28.638Z,17.50
2022-09-24T14:54:01.293Z,17.50
2022-09-24T14:56:34.232Z,17.50
2022-09-24T14:59:17.107Z,17.60
2022-09-24T15:01:49.616Z,17.60
2022-09-24T15:04:25.466Z,17.60
2022-09-24T15:06:56.176Z,17.60
2022-09-24T15:09:28.690Z,17.60
2022-09-24T15:12:10.135Z,17.60
2022-09-24T15:14:44.898Z,17.70
2022-09-24T15:17:26.773Z,17.60
2022-09-24T15:19:59.199Z,17.70
2022-09-24T15:22:30.509Z,17.60
2022-09-24T15:25:02.648Z,17.60
2022-09-24T15:27:35.218Z,17.60
2022-09-24T15:30:10.599Z,17.70
2022-09-24T15:32:43.185Z,17.60
2022-09-24T15:35:16.746Z,17.60
2022-09-24T15:37:49.657Z,17.60
2022-09-24T15:40:26.054Z,17.60
2022-09-24T15:42:58.512Z,17.60
2022-09-24T15:45:35.058Z,17.60
2022-09-24T15:48:07.518Z,17.60
2022-09-24T15:50:38.394Z,17.60
2022-09-24T15:53:09.438Z,17.50
2022-09-24T15:55:43.554Z,17.50
2022-09-24T15:58:19.038Z,17.50
2022-09-24T16:00:53.194Z,17.50
2022-09-24T16:03:25.923Z,17.50
2022-09-24T16:05:57.661Z,17.40
2022-09-24T16:08:29.772Z,17.40
2022-09-24T16:11:03.197Z,17.30
2022-09-24T16:13:36.491Z,17.30
2022-09-24T16:16:12.558Z,17.30
2022-09-24T16:18:47.057Z,17.20
2022-09-24T16:21:20.672Z,17.20
2022-09-24T16:23:57.561Z,17.20
2022-09-24T16:26:28.567Z,17.10
2022-09-24T16:29:00.596Z,17.10
2022-09-24T16:31:37.325Z,17.00
2022-09-24T16:34:08.957Z,16.90
2022-09-24T16:36:42.056Z,16.90
2022-09-24T16:39:16.055Z,16.80
2022-09-24T16:41:47.976Z,16.70
2022-09-24T16:44:20.387Z,16.70
2022-09-24T16:46:55.803Z,16.70
2022-09-24T16:49:30.606Z,16.60
2022-09-24T16:52:06.579Z,16.50
2022-09-24T16:54:38.688Z,16.40
2022-09-24T16:57:10.974Z,16.40
2022-09-24T16:59:42.791Z,16.30
2022-09-24T17:02:18.561Z,16.20
2022-09-24T17:04:53.907Z,16.10
2022-09-24T17:07:26.939Z,16.10
2022-09-24T17:10:11.918Z,16.00
2022-09-24T17:12:44.072Z,15.90
2022-09-24T17:15:17.192Z,15.90
2022-09-24T17:17:51.326Z,15.80
2022-09-24T17:20:23.600Z,15.70
2022-09-24T17:22:55.393Z,15.70
2022-09-24T17:25:27.048Z,15.60
2022-09-24T17:27:59.504Z,15.50
2022-09-24T17:30:30.582Z,15.40
2022-09-24T17:33:25.371Z,15.40
2022-09-24T17:35:58.611Z,15.30
2022-09-24T17:38:30.809Z,15.20
2022-09-24T17:41:04.995Z,15.10
2022-09-24T17:43:36.861Z,15.00
2022-09-24T17:46:13.775Z,14.80
2022-09-24T17:48:48.625Z,14.70
2022-09-24T17:51:22.963Z,14.60
2022-09-24T17:53:56.306Z,14.60
2022-09-24T17:56:28.655Z,14.40
2022-09-24T17:59:00.584Z,14.20
2022-09-24T18:01:36.579Z,14.20
2022-09-24T18:04:13.884Z,14.10
2022-09-24T18:06:46.071Z,14.00
2022-09-24T18:09:18.357Z,13.90
2022-09-24T18:11:50.201Z,13.80
2022-09-24T18:14:25.960Z,13.80
2022-09-24T18:16:57.825Z,13.80
2022-09-24T18:19:32.296Z,13.80
2022-09-24T18:22:04.286Z,13.80
2022-09-24T18:24:35.600Z,13.70
2022-09-24T18:27:09.480Z,13.60
2022-09-24T18:29:40.644Z,13.60
2022-09-24T18:32:13.715Z,13.60
2022-09-24T18:34:48.088Z,13.50
2022-09-24T18:37:20.427Z,13.60
2022-09-24T18:39:54.614Z,13.50
2022-09-24T18:42:28.523Z,13.50
2022-09-24T18:45:00.475Z,13.40
2022-09-24T18:47:31.624Z,13.30
2022-09-24T18:50:03.619Z,13.20
2022-09-24T18:52:37.110Z,13.10
2022-09-24T18:55:11.297Z,13.10
2022-09-24T18:57:42.409Z,13.10
2022-09-24T19:00:37.139Z,13.00
2022-09-24T19:03:08.686Z,13.00
2022-09-24T19:05:41.018Z,12.90
2022-09-24T19:08:15.261Z,12.80
2022-09-24T19:10:47.372Z,12.70
2022-09-24T19:13:22.573Z,12.60
2022-09-24T19:15:57.717Z,12.50
2022-09-24T19:18:31.345Z,12.50
2022-09-24T19:21:02.830Z,12.40
2022-09-24T19:23:39.294Z,12.40
2022-09-24T19:26:10.680Z,12.40
2022-09-24T19:28:43.651Z,12.20
2022-09-24T19:31:19.406Z,12.20
2022-09-24T19:33:50.543Z,12.10
2022-09-24T19:36:21.736Z,12.10
2022-09-24T19:38:58.100Z,12.00
2022-09-24T19:41:29.749Z,11.90
2022-09-24T19:44:08.244Z,11.90
2022-09-24T19:46:41.314Z,11.80
2022-09-24T19:49:12.596Z,11.80
2022-09-24T19:51:43.505Z,11.70
2022-09-24T19:54:18.170Z,11.70
2022-09-24T19:56:49.300Z,11.70
2022-09-24T19:59:20.867Z,11.70
2022-09-24T20:01:53.916Z,11.70
2022-09-24T20:04:25.749Z,11.60
2022-09-24T20:07:00.128Z,11.60
2022-09-24T20:09:35.951Z,11.50
2022-09-24T20:12:07.544Z,11.50
2022-09-24T20:14:41.262Z,11.40
2022-09-24T20:17:13.571Z,11.40
2022-09-24T20:19:45.441Z,11.30
2022-09-24T20:22:17.519Z,11.30
2022-09-24T20:24:51.988Z,11.20
2022-09-24T20:27:35.786Z,11.30
2022-09-24T20:30:08.369Z,11.10
2022-09-24T20:32:39.467Z,11.10
2022-09-24T20:35:11.816Z,11.10
2022-09-24T20:37:44.994Z,11.00
2022-09-24T20:40:19.099Z,11.00
2022-09-24T20:42:51.176Z,11.00
2022-09-24T20:45:22.556Z,11.00
2022-09-24T20:47:53.453Z,10.90
2022-09-24T20:50:24.476Z,10.90
2022-09-24T20:52:55.645Z,10.80
2022-09-24T20:55:32.192Z,10.90
2022-09-24T20:58:04.488Z,10.80
2022-09-24T21:00:40.595Z,10.70
2022-09-24T21:03:39.313Z,10.60
2022-09-24T21:06:05.396Z,10.60
2022-09-24T21:08:36.484Z,10.50
2022-09-24T21:11:13.897Z,10.50
2022-09-24T21:13:48.808Z,10.40
2022-09-24T21:16:22.806Z,10.40
2022-09-24T21:18:55.278Z,10.40
2022-09-24T21:21:29.082Z,10.30
2022-09-24T21:24:02.103Z,10.30
2022-09-24T21:26:37.667Z,10.50
2022-09-24T21:29:10.748Z,10.30
2022-09-24T21:31:46.467Z,10.30
2022-09-24T21:34:18.043Z,10.20
2022-09-24T21:36:49.573Z,10.20
2022-09-24T21:39:24.706Z,10.10
2022-09-24T21:41:59.558Z,10.10
2022-09-24T21:44:34.240Z,10.10
2022-09-24T21:47:05.417Z,10.00
2022-09-24T21:49:39.491Z,10.00
2022-09-24T21:52:13.498Z,10.00
2022-09-24T21:54:44.368Z,9.90
2022-09-24T21:57:18.165Z,9.90
2022-09-24T22:00:10.339Z,9.90
2022-09-24T22:02:43.619Z,9.90
2022-09-24T22:05:16.752Z,9.80
2022-09-24T22:07:49.269Z,9.80
2022-09-24T22:10:21.554Z,9.80
2022-09-24T22:12:58.216Z,9.70
2022-09-24T22:15:29.369Z,9.70
2022-09-24T22:18:01.268Z,9.70
2022-09-24T22:20:35.554Z,9.70
2022-09-24T22:23:06.299Z,9.90
2022-09-24T22:25:37.385Z,9.70
2022-09-24T22:28:11.311Z,9.60
2022-09-24T22:30:45.098Z,9.60
2022-09-24T22:33:36.476Z,9.60
2022-09-24T22:36:05.174Z,9.60
2022-09-24T22:38:37.138Z,9.60
2022-09-24T22:41:11.165Z,9.60
2022-09-24T22:43:45.079Z,9.60
2022-09-24T22:46:16.710Z,9.70
2022-09-24T22:48:48.624Z,9.50
2022-09-24T22:51:22.445Z,9.50
2022-09-24T22:53:57.106Z,9.40
2022-09-24T22:56:28.790Z,9.40
2022-09-24T22:59:03.593Z,9.40
2022-09-24T23:01:36.598Z,9.50
2022-09-24T23:04:08.524Z,9.30
2022-09-24T23:06:42.460Z,9.30
2022-09-24T23:09:13.538Z,9.20
2022-09-24T23:11:45.609Z,9.40
2022-09-24T23:14:20.142Z,9.20
2022-09-24T23:16:51.609Z,9.20
2022-09-24T23:19:22.978Z,9.20
2022-09-24T23:21:54.490Z,9.20
2022-09-24T23:24:25.363Z,9.20
2022-09-24T23:26:59.411Z,9.20
2022-09-24T23:29:33.111Z,9.20
2022-09-24T23:32:05.158Z,9.10
2022-09-24T23:34:36.399Z,9.10
2022-09-24T23:37:10.483Z,9.00
2022-09-24T23:39:44.486Z,9.00
2022-09-24T23:42:18.417Z,9.00
2022-09-24T23:44:52.112Z,9.00
2022-09-24T23:47:23.422Z,9.00
2022-09-24T23:49:55.427Z,9.00
2022-09-24T23:52:26.555Z,9.00
2022-09-24T23:54:57.385Z,9.00
2022-09-24T23:57:28.468Z,9.00
